sensor_id;sensor_type;location;lat;lon;timestamp;pressure;altitude;pressure_sealevel;temperature;humidity
42621;BME280;28252;53.336;-6.298;2023-02-28T00:00:31;103139.31;;;21.28;96.33
42621;BME280;28252;53.336;-6.298;2023-02-28T00:01:06;103144.84;;;21.26;96.46
42621;BME280;28252;53.336;-6.298;2023-02-28T00:01:39;103141.19;;;21.27;96.92
42621;BME280;28252;53.336;-6.298;2023-02-28T00:02:14;103135.88;;;21.26;96.53
42621;BME280;28252;53.336;-6.298;2023-02-28T00:02:48;103144.84;;;21.26;96.70
42621;BME280;28252;53.336;-6.298;2023-02-28T00:03:21;103138.59;;;21.26;96.12
42621;BME280;28252;53.336;-6.298;2023-02-28T00:03:57;103145.84;;;21.25;96.53
42621;BME280;28252;53.336;-6.298;2023-02-28T00:04:33;103146.72;;;21.26;94.72
42621;BME280;28252;53.336;-6.298;2023-02-28T00:05:07;103143.16;;;21.25;95.43
42621;BME280;28252;53.336;-6.298;2023-02-28T00:05:40;103144.84;;;21.26;96.01
42621;BME280;28252;53.336;-6.298;2023-02-28T00:06:14;103154.00;;;21.25;95.85
42621;BME280;28252;53.336;-6.298;2023-02-28T00:06:47;103146.72;;;21.26;96.32
42621;BME280;28252;53.336;-6.298;2023-02-28T00:07:21;103146.72;;;21.26;95.76
42621;BME280;28252;53.336;-6.298;2023-02-28T00:08:01;103143.16;;;21.25;95.52
42621;BME280;28252;53.336;-6.298;2023-02-28T00:08:37;103152.13;;;21.26;95.68
42621;BME280;28252;53.336;-6.298;2023-02-28T00:09:10;103148.56;;;21.25;95.38
42621;BME280;28252;53.336;-6.298;2023-02-28T00:09:41;103148.44;;;21.27;95.71
42621;BME280;28252;53.336;-6.298;2023-02-28T00:10:13;103144.00;;;21.26;95.67
42621;BME280;28252;53.336;-6.298;2023-02-28T00:10:46;103146.72;;;21.26;95.21
42621;BME280;28252;53.336;-6.298;2023-02-28T00:11:22;103146.81;;;21.24;95.23
42621;BME280;28252;53.336;-6.298;2023-02-28T00:11:55;103148.56;;;21.25;95.26
42621;BME280;28252;53.336;-6.298;2023-02-28T00:12:26;103154.97;;;21.24;95.19
42621;BME280;28252;53.336;-6.298;2023-02-28T00:13:03;103143.25;;;21.24;95.32
42621;BME280;28252;53.336;-6.298;2023-02-28T00:13:43;103153.25;;;21.23;95.36
42621;BME280;28252;53.336;-6.298;2023-02-28T00:14:19;103144.22;;;21.23;95.51
42621;BME280;28252;53.336;-6.298;2023-02-28T00:14:54;103153.25;;;21.23;95.45
42621;BME280;28252;53.336;-6.298;2023-02-28T00:15:30;103147.94;;;21.22;95.44
42621;BME280;28252;53.336;-6.298;2023-02-28T00:16:07;103155.97;;;21.23;95.24
42621;BME280;28252;53.336;-6.298;2023-02-28T00:16:40;103155.06;;;21.23;94.95
42621;BME280;28252;53.336;-6.298;2023-02-28T00:17:14;103158.78;;;21.22;95.09
42621;BME280;28252;53.336;-6.298;2023-02-28T00:17:47;103160.50;;;21.23;95.05
42621;BME280;28252;53.336;-6.298;2023-02-28T00:18:25;103158.78;;;21.22;95.06
42621;BME280;28252;53.336;-6.298;2023-02-28T00:18:58;103159.75;;;21.21;94.98
42621;BME280;28252;53.336;-6.298;2023-02-28T00:19:31;103156.19;;;21.20;95.09
42621;BME280;28252;53.336;-6.298;2023-02-28T00:20:02;103156.19;;;21.20;95.09
42621;BME280;28252;53.336;-6.298;2023-02-28T00:20:40;103157.16;;;21.19;94.69
42621;BME280;28252;53.336;-6.298;2023-02-28T00:21:16;103158.03;;;21.20;94.75
42621;BME280;28252;53.336;-6.298;2023-02-28T00:21:49;103156.31;;;21.19;95.13
42621;BME280;28252;53.336;-6.298;2023-02-28T00:22:25;103155.44;;;21.18;94.71
42621;BME280;28252;53.336;-6.298;2023-02-28T00:23:02;103151.84;;;21.18;95.20
42621;BME280;28252;53.336;-6.298;2023-02-28T00:23:37;103161.84;;;21.17;95.05
42621;BME280;28252;53.336;-6.298;2023-02-28T00:24:15;103158.28;;;21.17;95.16
42621;BME280;28252;53.336;-6.298;2023-02-28T00:24:48;103154.56;;;21.18;94.89
42621;BME280;28252;53.336;-6.298;2023-02-28T00:25:24;103158.28;;;21.17;95.25
42621;BME280;28252;53.336;-6.298;2023-02-28T00:25:55;103165.50;;;21.16;95.01
42621;BME280;28252;53.336;-6.298;2023-02-28T00:26:31;103154.66;;;21.16;94.96
42621;BME280;28252;53.336;-6.298;2023-02-28T00:27:07;103157.53;;;21.15;95.53
42621;BME280;28252;53.336;-6.298;2023-02-28T00:27:38;103156.63;;;21.14;94.98
42621;BME280;28252;53.336;-6.298;2023-02-28T00:28:14;103157.53;;;21.15;95.12
42621;BME280;28252;53.336;-6.298;2023-02-28T00:28:45;103156.63;;;21.14;95.58
42621;BME280;28252;53.336;-6.298;2023-02-28T00:29:21;103154.03;;;21.13;95.10
42621;BME280;28252;53.336;-6.298;2023-02-28T00:29:56;103160.34;;;21.13;95.65
42621;BME280;28252;53.336;-6.298;2023-02-28T00:30:34;103155.91;;;21.12;95.63
42621;BME280;28252;53.336;-6.298;2023-02-28T00:31:10;103160.47;;;21.12;95.43
42621;BME280;28252;53.336;-6.298;2023-02-28T00:31:46;103156.00;;;21.11;95.53
42621;BME280;28252;53.336;-6.298;2023-02-28T00:32:22;103156.00;;;21.11;95.14
42621;BME280;28252;53.336;-6.298;2023-02-28T00:32:55;103158.72;;;21.11;95.31
42621;BME280;28252;53.336;-6.298;2023-02-28T00:33:27;103161.44;;;21.11;95.19
42621;BME280;28252;53.336;-6.298;2023-02-28T00:33:59;103156.13;;;21.09;95.66
42621;BME280;28252;53.336;-6.298;2023-02-28T00:34:35;103161.53;;;21.09;95.59
42621;BME280;28252;53.336;-6.298;2023-02-28T00:35:09;103160.69;;;21.08;95.38
42621;BME280;28252;53.336;-6.298;2023-02-28T00:35:43;103166.97;;;21.09;95.13
42621;BME280;28252;53.336;-6.298;2023-02-28T00:36:16;103166.97;;;21.09;95.42
42621;BME280;28252;53.336;-6.298;2023-02-28T00:36:52;103166.22;;;21.07;95.51
42621;BME280;28252;53.336;-6.298;2023-02-28T00:37:25;103171.53;;;21.08;95.41
42621;BME280;28252;53.336;-6.298;2023-02-28T00:37:56;103167.06;;;21.07;95.57
42621;BME280;28252;53.336;-6.298;2023-02-28T00:38:37;103165.38;;;21.06;95.62
42621;BME280;28252;53.336;-6.298;2023-02-28T00:39:08;103168.06;;;21.06;95.63
42621;BME280;28252;53.336;-6.298;2023-02-28T00:39:39;103169.91;;;21.06;95.15
42621;BME280;28252;53.336;-6.298;2023-02-28T00:40:14;103169.03;;;21.05;95.53
42621;BME280;28252;53.336;-6.298;2023-02-28T00:40:50;103174.47;;;21.05;95.69
42621;BME280;28252;53.336;-6.298;2023-02-28T00:41:21;103157.34;;;21.05;95.74
42621;BME280;28252;53.336;-6.298;2023-02-28T00:41:52;103161.91;;;21.04;95.20
42621;BME280;28252;53.336;-6.298;2023-02-28T00:42:23;103165.59;;;21.03;95.40
42621;BME280;28252;53.336;-6.298;2023-02-28T00:42:59;103165.59;;;21.03;95.48
42621;BME280;28252;53.336;-6.298;2023-02-28T00:43:31;103166.44;;;21.04;95.54
42621;BME280;28252;53.336;-6.298;2023-02-28T00:44:07;103165.59;;;21.03;95.48
42621;BME280;28252;53.336;-6.298;2023-02-28T00:46:00;103167.56;;;21.01;95.97
42621;BME280;28252;53.336;-6.298;2023-02-28T00:46:31;103167.56;;;21.01;95.54
42621;BME280;28252;53.336;-6.298;2023-02-28T00:47:05;103162.16;;;21.01;95.81
42621;BME280;28252;53.336;-6.298;2023-02-28T00:47:38;103165.81;;;21.00;95.99
42621;BME280;28252;53.336;-6.298;2023-02-28T00:48:11;103162.25;;;21.00;96.15
42621;BME280;28252;53.336;-6.298;2023-02-28T00:48:47;103165.81;;;21.00;95.81
42621;BME280;28252;53.336;-6.298;2023-02-28T00:49:21;103169.50;;;20.99;96.11
42621;BME280;28252;53.336;-6.298;2023-02-28T00:49:54;103169.50;;;20.99;96.17
42621;BME280;28252;53.336;-6.298;2023-02-28T00:50:33;103162.38;;;20.98;96.10
42621;BME280;28252;53.336;-6.298;2023-02-28T00:51:11;103162.38;;;20.98;95.81
42621;BME280;28252;53.336;-6.298;2023-02-28T00:51:45;103164.22;;;20.98;95.59
42621;BME280;28252;53.336;-6.298;2023-02-28T00:52:20;103159.66;;;20.98;95.92
42621;BME280;28252;53.336;-6.298;2023-02-28T00:53:00;103164.34;;;20.96;96.09
42621;BME280;28252;53.336;-6.298;2023-02-28T00:53:31;103158.91;;;20.96;95.96
42621;BME280;28252;53.336;-6.298;2023-02-28T00:54:05;103161.63;;;20.96;95.78
42621;BME280;28252;53.336;-6.298;2023-02-28T00:54:41;103162.59;;;20.95;95.91
42621;BME280;28252;53.336;-6.298;2023-02-28T00:55:16;103169.75;;;20.96;96.19
42621;BME280;28252;53.336;-6.298;2023-02-28T00:55:54;103160.84;;;20.94;96.22
42621;BME280;28252;53.336;-6.298;2023-02-28T00:56:32;103167.28;;;20.93;95.69
42621;BME280;28252;53.336;-6.298;2023-02-28T00:57:08;103160.09;;;20.92;95.94
42621;BME280;28252;53.336;-6.298;2023-02-28T00:57:41;103161.97;;;20.92;95.89
42621;BME280;28252;53.336;-6.298;2023-02-28T00:58:14;103168.25;;;20.92;95.75
42621;BME280;28252;53.336;-6.298;2023-02-28T00:58:48;103160.09;;;20.92;95.91
42621;BME280;28252;53.336;-6.298;2023-02-28T00:59:19;103166.53;;;20.91;96.35
42621;BME280;28252;53.336;-6.298;2023-02-28T00:59:57;103159.38;;;20.90;96.70
42621;BME280;28252;53.336;-6.298;2023-02-28T01:00:34;103169.22;;;20.91;96.60
42621;BME280;28252;53.336;-6.298;2023-02-28T01:01:09;103162.94;;;20.90;96.64
42621;BME280;28252;53.336;-6.298;2023-02-28T01:01:45;103160.34;;;20.89;96.37
42621;BME280;28252;53.336;-6.298;2023-02-28T01:02:18;103156.78;;;20.88;96.29
42621;BME280;28252;53.336;-6.298;2023-02-28T01:02:50;103168.47;;;20.89;96.07
42621;BME280;28252;53.336;-6.298;2023-02-28T01:03:23;103155.06;;;20.87;96.42
42621;BME280;28252;53.336;-6.298;2023-02-28T01:03:59;103165.75;;;20.89;95.63
42621;BME280;28252;53.336;-6.298;2023-02-28T01:04:36;103166.75;;;20.88;96.46
42621;BME280;28252;53.336;-6.298;2023-02-28T01:05:07;103165.00;;;20.87;96.01
42621;BME280;28252;53.336;-6.298;2023-02-28T01:05:43;103165.00;;;20.87;96.94
42621;BME280;28252;53.336;-6.298;2023-02-28T01:06:16;103166.00;;;20.86;96.39
42621;BME280;28252;53.336;-6.298;2023-02-28T01:06:47;103163.28;;;20.86;96.15
42621;BME280;28252;53.336;-6.298;2023-02-28T01:07:18;103166.00;;;20.86;96.68
42621;BME280;28252;53.336;-6.298;2023-02-28T01:07:53;103167.81;;;20.85;96.64
42621;BME280;28252;53.336;-6.298;2023-02-28T01:08:27;103176.06;;;20.84;96.22
42621;BME280;28252;53.336;-6.298;2023-02-28T01:09:00;103168.81;;;20.84;96.36
42621;BME280;28252;53.336;-6.298;2023-02-28T01:09:36;103174.25;;;20.84;96.58
42621;BME280;28252;53.336;-6.298;2023-02-28T01:10:13;103176.06;;;20.84;96.21
42621;BME280;28252;53.336;-6.298;2023-02-28T01:10:49;103173.50;;;20.82;95.47
42621;BME280;28252;53.336;-6.298;2023-02-28T01:11:23;103171.66;;;20.83;96.14
42621;BME280;28252;53.336;-6.298;2023-02-28T01:11:58;103168.94;;;20.83;96.36
42621;BME280;28252;53.336;-6.298;2023-02-28T01:12:29;103168.19;;;20.81;96.49
42621;BME280;28252;53.336;-6.298;2023-02-28T01:13:04;103167.19;;;20.82;96.31
42621;BME280;28252;53.336;-6.298;2023-02-28T01:13:35;103170.91;;;20.81;96.38
42621;BME280;28252;53.336;-6.298;2023-02-28T01:14:10;103170.91;;;20.81;96.13
42621;BME280;28252;53.336;-6.298;2023-02-28T01:14:44;103169.06;;;20.81;96.49
42621;BME280;28252;53.336;-6.298;2023-02-28T01:15:18;103168.31;;;20.79;96.64
42621;BME280;28252;53.336;-6.298;2023-02-28T01:15:50;103167.41;;;20.79;96.48
42621;BME280;28252;53.336;-6.298;2023-02-28T01:16:24;103172.84;;;20.79;96.39
42621;BME280;28252;53.336;-6.298;2023-02-28T01:17:02;103171.13;;;20.78;96.64
42621;BME280;28252;53.336;-6.298;2023-02-28T01:17:41;103176.53;;;20.78;96.91
42621;BME280;28252;53.336;-6.298;2023-02-28T01:18:16;103178.41;;;20.77;96.47
42621;BME280;28252;53.336;-6.298;2023-02-28T01:18:49;103169.38;;;20.77;96.39
42621;BME280;28252;53.336;-6.298;2023-02-28T01:19:26;103172.09;;;20.77;96.81
42621;BME280;28252;53.336;-6.298;2023-02-28T01:19:59;103165.81;;;20.76;96.78
42621;BME280;28252;53.336;-6.298;2023-02-28T01:20:33;103178.50;;;20.76;96.62
42621;BME280;28252;53.336;-6.298;2023-02-28T01:21:13;103177.63;;;20.75;96.65
42621;BME280;28252;53.336;-6.298;2023-02-28T01:21:49;103174.06;;;20.75;96.24
42621;BME280;28252;53.336;-6.298;2023-02-28T01:22:26;103172.31;;;20.74;96.89
42621;BME280;28252;53.336;-6.298;2023-02-28T01:23:02;103175.03;;;20.74;96.58
42621;BME280;28252;53.336;-6.298;2023-02-28T01:23:35;103175.03;;;20.74;96.94
42621;BME280;28252;53.336;-6.298;2023-02-28T01:24:07;103177.72;;;20.74;96.76
42621;BME280;28252;53.336;-6.298;2023-02-28T01:24:42;103176.00;;;20.73;96.74
42621;BME280;28252;53.336;-6.298;2023-02-28T01:25:17;103176.97;;;20.71;96.72
42621;BME280;28252;53.336;-6.298;2023-02-28T01:25:48;103170.72;;;20.71;96.60
42621;BME280;28252;53.336;-6.298;2023-02-28T01:26:27;103176.97;;;20.71;96.57
42621;BME280;28252;53.336;-6.298;2023-02-28T01:27:00;103177.09;;;20.70;96.87
42621;BME280;28252;53.336;-6.298;2023-02-28T01:27:33;103172.69;;;20.69;96.40
42621;BME280;28252;53.336;-6.298;2023-02-28T01:28:09;103175.38;;;20.69;96.66
42621;BME280;28252;53.336;-6.298;2023-02-28T01:28:42;103170.94;;;20.68;96.62
42621;BME280;28252;53.336;-6.298;2023-02-28T01:29:14;103173.63;;;20.68;96.69
42621;BME280;28252;53.336;-6.298;2023-02-28T01:29:45;103179.06;;;20.68;97.15
42621;BME280;28252;53.336;-6.298;2023-02-28T01:30:18;103175.50;;;20.67;96.78
42621;BME280;28252;53.336;-6.298;2023-02-28T01:30:51;103178.31;;;20.66;96.63
42621;BME280;28252;53.336;-6.298;2023-02-28T01:31:27;103172.91;;;20.66;96.71
42621;BME280;28252;53.336;-6.298;2023-02-28T01:32:02;103176.47;;;20.66;96.58
42621;BME280;28252;53.336;-6.298;2023-02-28T01:32:33;103172.03;;;20.65;96.68
42621;BME280;28252;53.336;-6.298;2023-02-28T01:33:04;103174.75;;;20.65;96.81
42621;BME280;28252;53.336;-6.298;2023-02-28T01:33:35;103181.13;;;20.64;96.97
42621;BME280;28252;53.336;-6.298;2023-02-28T01:34:10;103174.84;;;20.64;97.21
42621;BME280;28252;53.336;-6.298;2023-02-28T01:34:41;103173.97;;;20.63;96.52
42621;BME280;28252;53.336;-6.298;2023-02-28T01:35:17;103170.41;;;20.63;96.82
42621;BME280;28252;53.336;-6.298;2023-02-28T01:35:48;103177.69;;;20.62;96.73
42621;BME280;28252;53.336;-6.298;2023-02-28T01:36:20;103165.91;;;20.62;96.96
42621;BME280;28252;53.336;-6.298;2023-02-28T01:36:56;103177.69;;;20.62;96.83
42621;BME280;28252;53.336;-6.298;2023-02-28T01:37:33;103175.91;;;20.61;97.14
42621;BME280;28252;53.336;-6.298;2023-02-28T01:38:09;103186.72;;;20.61;97.07
42621;BME280;28252;53.336;-6.298;2023-02-28T01:38:41;103170.47;;;20.61;97.11
42621;BME280;28252;53.336;-6.298;2023-02-28T01:39:13;103175.03;;;20.61;96.90
42621;BME280;28252;53.336;-6.298;2023-02-28T01:39:44;103175.91;;;20.61;97.23
42621;BME280;28252;53.336;-6.298;2023-02-28T01:40:19;103174.19;;;20.60;96.82
42621;BME280;28252;53.336;-6.298;2023-02-28T01:40:57;103177.88;;;20.59;97.51
42621;BME280;28252;53.336;-6.298;2023-02-28T01:41:32;103178.72;;;20.60;97.00
42621;BME280;28252;53.336;-6.298;2023-02-28T01:42:05;103170.69;;;20.58;97.37
42621;BME280;28252;53.336;-6.298;2023-02-28T01:42:41;103184.25;;;20.58;97.14
42621;BME280;28252;53.336;-6.298;2023-02-28T01:43:51;103171.69;;;20.57;96.86
42621;BME280;28252;53.336;-6.298;2023-02-28T01:45:42;103178.09;;;20.56;96.84
42621;BME280;28252;53.336;-6.298;2023-02-28T01:46:15;103185.47;;;20.54;97.33
42621;BME280;28252;53.336;-6.298;2023-02-28T01:46:48;103172.88;;;20.53;97.22
42621;BME280;28252;53.336;-6.298;2023-02-28T01:47:25;103175.59;;;20.53;97.26
42621;BME280;28252;53.336;-6.298;2023-02-28T01:48:02;103172.88;;;20.53;97.46
42621;BME280;28252;53.336;-6.298;2023-02-28T01:48:36;103176.59;;;20.52;97.10
42621;BME280;28252;53.336;-6.298;2023-02-28T01:49:13;103178.31;;;20.53;97.30
42621;BME280;28252;53.336;-6.298;2023-02-28T01:49:46;103177.56;;;20.51;97.55
42621;BME280;28252;53.336;-6.298;2023-02-28T01:50:21;103179.28;;;20.52;97.31
42621;BME280;28252;53.336;-6.298;2023-02-28T01:50:58;103175.69;;;20.51;97.76
42621;BME280;28252;53.336;-6.298;2023-02-28T01:51:46;103181.25;;;20.50;97.88
42621;BME280;28252;53.336;-6.298;2023-02-28T01:52:25;103187.63;;;20.49;97.55
42621;BME280;28252;53.336;-6.298;2023-02-28T01:52:59;103185.78;;;20.49;97.48
42621;BME280;28252;53.336;-6.298;2023-02-28T01:53:37;103182.22;;;20.49;98.21
42621;BME280;28252;53.336;-6.298;2023-02-28T01:54:14;103186.78;;;20.48;97.97
42621;BME280;28252;53.336;-6.298;2023-02-28T01:54:50;103180.47;;;20.48;98.10
42621;BME280;28252;53.336;-6.298;2023-02-28T01:55:24;103176.06;;;20.47;97.85
42621;BME280;28252;53.336;-6.298;2023-02-28T01:56:05;103177.88;;;20.46;97.88
42621;BME280;28252;53.336;-6.298;2023-02-28T01:56:43;103182.44;;;20.46;98.01
42621;BME280;28252;53.336;-6.298;2023-02-28T01:57:19;103169.88;;;20.45;98.21
42621;BME280;28252;53.336;-6.298;2023-02-28T01:57:55;103176.16;;;20.45;98.07
42621;BME280;28252;53.336;-6.298;2023-02-28T01:58:27;103174.44;;;20.44;97.95
42621;BME280;28252;53.336;-6.298;2023-02-28T01:59:00;103180.69;;;20.45;97.85
42621;BME280;28252;53.336;-6.298;2023-02-28T02:00:15;103169.88;;;20.45;97.97
42621;BME280;28252;53.336;-6.298;2023-02-28T02:00:32;103172.72;;;20.43;98.17
42621;BME280;28252;53.336;-6.298;2023-02-28T02:01:05;103170.84;;;20.44;98.41
42621;BME280;28252;53.336;-6.298;2023-02-28T02:01:39;103177.25;;;20.43;98.06
42621;BME280;28252;53.336;-6.298;2023-02-28T02:02:12;103171.81;;;20.43;97.94
42621;BME280;28252;53.336;-6.298;2023-02-28T02:02:49;103170.13;;;20.42;97.81
42621;BME280;28252;53.336;-6.298;2023-02-28T02:03:21;103168.25;;;20.42;97.90
42621;BME280;28252;53.336;-6.298;2023-02-28T02:03:55;103181.78;;;20.42;98.54
42621;BME280;28252;53.336;-6.298;2023-02-28T02:04:36;103172.81;;;20.42;98.24
42621;BME280;28252;53.336;-6.298;2023-02-28T02:05:24;103172.03;;;20.40;98.58
42621;BME280;28252;53.336;-6.298;2023-02-28T02:05:58;103168.38;;;20.41;98.30
42621;BME280;28252;53.336;-6.298;2023-02-28T02:06:34;103168.47;;;20.39;98.29
42621;BME280;28252;53.336;-6.298;2023-02-28T02:07:13;103170.34;;;20.39;98.00
42621;BME280;28252;53.336;-6.298;2023-02-28T02:07:48;103173.91;;;20.39;98.41
42621;BME280;28252;53.336;-6.298;2023-02-28T02:08:26;103177.47;;;20.40;98.32
42621;BME280;28252;53.336;-6.298;2023-02-28T02:08:58;103175.75;;;20.39;98.42
42621;BME280;28252;53.336;-6.298;2023-02-28T02:09:29;103179.41;;;20.38;98.26
42621;BME280;28252;53.336;-6.298;2023-02-28T02:10:58;103175.00;;;20.37;99.00
42621;BME280;28252;53.336;-6.298;2023-02-28T02:11:36;103170.53;;;20.36;98.68
42621;BME280;28252;53.336;-6.298;2023-02-28T02:12:37;103170.53;;;20.36;98.79
42621;BME280;28252;53.336;-6.298;2023-02-28T02:14:32;103174.22;;;20.34;98.62
42621;BME280;28252;53.336;-6.298;2023-02-28T02:15:12;103173.47;;;20.32;98.84
42621;BME280;28252;53.336;-6.298;2023-02-28T02:18:16;103178.88;;;20.32;98.40
42621;BME280;28252;53.336;-6.298;2023-02-28T02:20:32;103173.56;;;20.31;98.36
42621;BME280;28252;53.336;-6.298;2023-02-28T02:23:10;103171.97;;;20.28;99.12
42621;BME280;28252;53.336;-6.298;2023-02-28T02:23:59;103176.53;;;20.28;99.33
42621;BME280;28252;53.336;-6.298;2023-02-28T02:25:23;103172.19;;;20.25;98.84
42621;BME280;28252;53.336;-6.298;2023-02-28T02:26:55;103172.19;;;20.25;99.05
42621;BME280;28252;53.336;-6.298;2023-02-28T02:27:47;103173.16;;;20.24;99.34
42621;BME280;28252;53.336;-6.298;2023-02-28T02:31:53;103180.53;;;20.22;99.14
42621;BME280;28252;53.336;-6.298;2023-02-28T02:34:52;103177.06;;;20.20;99.23
42621;BME280;28252;53.336;-6.298;2023-02-28T02:36:22;103175.31;;;20.19;99.73
42621;BME280;28252;53.336;-6.298;2023-02-28T02:37:02;103172.75;;;20.18;99.58
42621;BME280;28252;53.336;-6.298;2023-02-28T02:40:25;103170.16;;;20.16;100.00
42621;BME280;28252;53.336;-6.298;2023-02-28T02:41:52;103169.28;;;20.15;100.00
42621;BME280;28252;53.336;-6.298;2023-02-28T02:42:31;103178.38;;;20.14;100.00
42621;BME280;28252;53.336;-6.298;2023-02-28T02:43:13;103177.50;;;20.14;100.00
42621;BME280;28252;53.336;-6.298;2023-02-28T02:43:56;103172.09;;;20.14;100.00
42621;BME280;28252;53.336;-6.298;2023-02-28T02:44:47;103164.97;;;20.13;100.00
42621;BME280;28252;53.336;-6.298;2023-02-28T02:45:31;103175.78;;;20.13;100.00
42621;BME280;28252;53.336;-6.298;2023-02-28T02:46:28;103166.91;;;20.11;100.00
42621;BME280;28252;53.336;-6.298;2023-02-28T02:47:05;103166.91;;;20.11;100.00
42621;BME280;28252;53.336;-6.298;2023-02-28T02:47:38;103171.34;;;20.12;100.00
42621;BME280;28252;53.336;-6.298;2023-02-28T02:48:13;103166.03;;;20.10;100.00
42621;BME280;28252;53.336;-6.298;2023-02-28T02:48:48;103167.88;;;20.10;100.00
42621;BME280;28252;53.336;-6.298;2023-02-28T02:49:28;103168.72;;;20.10;100.00
42621;BME280;28252;53.336;-6.298;2023-02-28T02:50:05;103167.88;;;20.10;100.00
42621;BME280;28252;53.336;-6.298;2023-02-28T02:50:42;103165.16;;;20.10;100.00
42621;BME280;28252;53.336;-6.298;2023-02-28T02:51:17;103168.84;;;20.09;99.69
42621;BME280;28252;53.336;-6.298;2023-02-28T02:51:54;103163.44;;;20.09;99.34
42621;BME280;28252;53.336;-6.298;2023-02-28T02:52:31;103166.13;;;20.09;99.47
42621;BME280;28252;53.336;-6.298;2023-02-28T02:53:07;103169.72;;;20.09;100.00
42621;BME280;28252;53.336;-6.298;2023-02-28T02:53:50;103162.56;;;20.08;100.00
42621;BME280;28252;53.336;-6.298;2023-02-28T02:54:32;103162.56;;;20.08;100.00
42621;BME280;28252;53.336;-6.298;2023-02-28T02:55:08;103169.84;;;20.08;100.00
42621;BME280;28252;53.336;-6.298;2023-02-28T02:55:46;103168.00;;;20.08;100.00
42621;BME280;28252;53.336;-6.298;2023-02-28T02:56:21;103171.66;;;20.07;100.00
42621;BME280;28252;53.336;-6.298;2023-02-28T02:56:55;103165.38;;;20.07;100.00
42621;BME280;28252;53.336;-6.298;2023-02-28T02:57:31;103169.94;;;20.06;100.00
42621;BME280;28252;53.336;-6.298;2023-02-28T02:58:05;103163.69;;;20.06;100.00
42621;BME280;28252;53.336;-6.298;2023-02-28T02:58:41;103174.50;;;20.06;100.00
42621;BME280;28252;53.336;-6.298;2023-02-28T02:59:16;103172.75;;;20.05;100.00
42621;BME280;28252;53.336;-6.298;2023-02-28T02:59:55;103162.91;;;20.04;100.00
42621;BME280;28252;53.336;-6.298;2023-02-28T03:00:29;103162.91;;;20.04;100.00
42621;BME280;28252;53.336;-6.298;2023-02-28T03:01:06;103160.19;;;20.04;100.00
42621;BME280;28252;53.336;-6.298;2023-02-28T03:01:42;103170.16;;;20.03;100.00
42621;BME280;28252;53.336;-6.298;2023-02-28T03:02:13;103173.72;;;20.04;100.00
42621;BME280;28252;53.336;-6.298;2023-02-28T03:02:52;103163.88;;;20.03;100.00
42621;BME280;28252;53.336;-6.298;2023-02-28T03:03:27;103174.72;;;20.03;100.00
42621;BME280;28252;53.336;-6.298;2023-02-28T03:04:13;103168.41;;;20.02;100.00
42621;BME280;28252;53.336;-6.298;2023-02-28T03:04:52;103166.69;;;20.01;100.00
42621;BME280;28252;53.336;-6.298;2023-02-28T03:05:28;103162.25;;;20.00;100.00
42621;BME280;28252;53.336;-6.298;2023-02-28T03:06:03;103164.09;;;20.00;100.00
42621;BME280;28252;53.336;-6.298;2023-02-28T03:06:36;103162.34;;;19.99;100.00
42621;BME280;28252;53.336;-6.298;2023-02-28T03:07:14;103161.41;;;20.00;100.00
42621;BME280;28252;53.336;-6.298;2023-02-28T03:07:50;103161.41;;;20.00;100.00
42621;BME280;28252;53.336;-6.298;2023-02-28T03:08:27;103165.06;;;19.99;100.00
42621;BME280;28252;53.336;-6.298;2023-02-28T03:09:02;103159.66;;;19.99;100.00
42621;BME280;28252;53.336;-6.298;2023-02-28T03:09:35;103156.94;;;19.99;100.00
42621;BME280;28252;53.336;-6.298;2023-02-28T03:10:27;103156.94;;;19.99;100.00
42621;BME280;28252;53.336;-6.298;2023-02-28T03:11:19;103160.66;;;19.98;100.00
42621;BME280;28252;53.336;-6.298;2023-02-28T03:11:56;103157.94;;;19.98;100.00
42621;BME280;28252;53.336;-6.298;2023-02-28T03:12:34;103158.03;;;19.96;100.00
42621;BME280;28252;53.336;-6.298;2023-02-28T03:14:33;103151.78;;;19.95;100.00
42621;BME280;28252;53.336;-6.298;2023-02-28T03:15:31;103155.44;;;19.94;100.00
42621;BME280;28252;53.336;-6.298;2023-02-28T03:17:59;103163.56;;;19.94;100.00
42621;BME280;28252;53.336;-6.298;2023-02-28T03:19:37;103163.78;;;19.91;100.00
42621;BME280;28252;53.336;-6.298;2023-02-28T03:20:21;103166.47;;;19.91;100.00
42621;BME280;28252;53.336;-6.298;2023-02-28T03:21:17;103162.06;;;19.90;100.00
42621;BME280;28252;53.336;-6.298;2023-02-28T03:22:51;103170.19;;;19.90;100.00
42621;BME280;28252;53.336;-6.298;2023-02-28T03:23:31;103168.44;;;19.89;100.00
42621;BME280;28252;53.336;-6.298;2023-02-28T03:24:10;103167.56;;;19.89;100.00
42621;BME280;28252;53.336;-6.298;2023-02-28T03:26:21;103170.28;;;19.89;100.00
42621;BME280;28252;53.336;-6.298;2023-02-28T03:26:58;103170.38;;;19.87;100.00
42621;BME280;28252;53.336;-6.298;2023-02-28T03:29:46;103171.34;;;19.86;100.00
42621;BME280;28252;53.336;-6.298;2023-02-28T03:30:35;103172.31;;;19.85;100.00
42621;BME280;28252;53.336;-6.298;2023-02-28T03:31:10;103175.00;;;19.85;100.00
42621;BME280;28252;53.336;-6.298;2023-02-28T03:31:49;103176.00;;;19.84;100.00
42621;BME280;28252;53.336;-6.298;2023-02-28T03:32:31;103176.00;;;19.84;100.00
42621;BME280;28252;53.336;-6.298;2023-02-28T03:33:08;103178.72;;;19.84;100.00
42621;BME280;28252;53.336;-6.298;2023-02-28T03:34:31;103174.25;;;19.83;100.00
42621;BME280;28252;53.336;-6.298;2023-02-28T03:35:10;103184.22;;;19.83;100.00
42621;BME280;28252;53.336;-6.298;2023-02-28T03:35:47;103175.25;;;19.82;100.00
42621;BME280;28252;53.336;-6.298;2023-02-28T03:36:26;103177.94;;;19.82;100.00
42621;BME280;28252;53.336;-6.298;2023-02-28T03:37:06;103176.22;;;19.81;100.00
42621;BME280;28252;53.336;-6.298;2023-02-28T03:37:39;103176.22;;;19.81;100.00
42621;BME280;28252;53.336;-6.298;2023-02-28T03:38:22;103179.88;;;19.80;100.00
42621;BME280;28252;53.336;-6.298;2023-02-28T03:38:58;103179.88;;;19.80;100.00